sensor_id;sensor_type;location;lat;lon;timestamp;P1;durP1;ratioP1;P2;durP2;ratioP2
15929;SDS011;8064;51.142;4.780;2023-04-06T00:01:07;25.07;;;15.47;;
15929;SDS011;8064;51.142;4.780;2023-04-06T00:03:34;24.50;;;16.17;;
15929;SDS011;8064;51.142;4.780;2023-04-06T00:06:00;25.40;;;16.77;;
15929;SDS011;8064;51.142;4.780;2023-04-06T00:08:26;22.37;;;16.10;;
15929;SDS011;8064;51.142;4.780;2023-04-06T00:10:52;22.93;;;15.63;;
15929;SDS011;8064;51.142;4.780;2023-04-06T00:13:18;23.00;;;16.23;;
15929;SDS011;8064;51.142;4.780;2023-04-06T00:15:44;23.83;;;15.73;;
15929;SDS011;8064;51.142;4.780;2023-04-06T00:18:10;20.57;;;14.13;;
15929;SDS011;8064;51.142;4.780;2023-04-06T00:20:36;23.77;;;15.33;;
15929;SDS011;8064;51.142;4.780;2023-04-06T00:23:01;23.63;;;14.90;;
15929;SDS011;8064;51.142;4.780;2023-04-06T00:25:27;21.97;;;15.57;;
15929;SDS011;8064;51.142;4.780;2023-04-06T00:27:53;21.63;;;15.17;;
15929;SDS011;8064;51.142;4.780;2023-04-06T00:30:19;21.73;;;14.90;;
15929;SDS011;8064;51.142;4.780;2023-04-06T00:32:45;24.57;;;14.93;;
15929;SDS011;8064;51.142;4.780;2023-04-06T00:35:11;22.83;;;15.53;;
15929;SDS011;8064;51.142;4.780;2023-04-06T00:37:37;22.17;;;15.53;;
15929;SDS011;8064;51.142;4.780;2023-04-06T00:40:02;26.00;;;14.63;;
15929;SDS011;8064;51.142;4.780;2023-04-06T00:42:28;23.00;;;14.73;;
15929;SDS011;8064;51.142;4.780;2023-04-06T00:44:55;23.37;;;13.27;;
15929;SDS011;8064;51.142;4.780;2023-04-06T00:47:23;20.00;;;13.97;;
15929;SDS011;8064;51.142;4.780;2023-04-06T00:49:50;21.27;;;14.80;;
15929;SDS011;8064;51.142;4.780;2023-04-06T00:52:17;19.53;;;13.77;;
15929;SDS011;8064;51.142;4.780;2023-04-06T00:54:43;24.30;;;15.00;;
15929;SDS011;8064;51.142;4.780;2023-04-06T00:57:10;21.80;;;14.37;;
15929;SDS011;8064;51.142;4.780;2023-04-06T00:59:37;21.07;;;14.40;;
15929;SDS011;8064;51.142;4.780;2023-04-06T01:02:03;23.63;;;14.53;;
15929;SDS011;8064;51.142;4.780;2023-04-06T01:04:29;21.33;;;14.47;;
15929;SDS011;8064;51.142;4.780;2023-04-06T01:06:55;21.30;;;14.33;;
15929;SDS011;8064;51.142;4.780;2023-04-06T01:09:21;22.47;;;14.00;;
15929;SDS011;8064;51.142;4.780;2023-04-06T01:11:47;22.90;;;14.77;;
15929;SDS011;8064;51.142;4.780;2023-04-06T01:14:13;23.03;;;13.40;;
15929;SDS011;8064;51.142;4.780;2023-04-06T01:16:39;23.27;;;15.00;;
15929;SDS011;8064;51.142;4.780;2023-04-06T01:19:15;24.97;;;14.37;;
15929;SDS011;8064;51.142;4.780;2023-04-06T01:21:43;23.23;;;14.47;;
15929;SDS011;8064;51.142;4.780;2023-04-06T01:24:09;24.50;;;15.40;;
15929;SDS011;8064;51.142;4.780;2023-04-06T01:26:35;24.80;;;14.80;;
15929;SDS011;8064;51.142;4.780;2023-04-06T01:29:02;22.83;;;14.43;;
15929;SDS011;8064;51.142;4.780;2023-04-06T01:31:28;23.37;;;13.77;;
15929;SDS011;8064;51.142;4.780;2023-04-06T01:33:54;20.77;;;13.53;;
15929;SDS011;8064;51.142;4.780;2023-04-06T01:36:20;22.23;;;13.23;;
15929;SDS011;8064;51.142;4.780;2023-04-06T01:38:46;26.57;;;13.20;;
15929;SDS011;8064;51.142;4.780;2023-04-06T01:41:12;19.43;;;13.40;;
15929;SDS011;8064;51.142;4.780;2023-04-06T01:43:38;30.40;;;14.93;;
15929;SDS011;8064;51.142;4.780;2023-04-06T01:46:04;23.47;;;13.27;;
15929;SDS011;8064;51.142;4.780;2023-04-06T01:48:30;22.93;;;13.63;;
15929;SDS011;8064;51.142;4.780;2023-04-06T01:50:56;25.77;;;13.60;;
15929;SDS011;8064;51.142;4.780;2023-04-06T01:53:22;20.70;;;13.50;;
15929;SDS011;8064;51.142;4.780;2023-04-06T01:55:48;22.57;;;13.10;;
15929;SDS011;8064;51.142;4.780;2023-04-06T01:58:14;23.57;;;13.30;;
15929;SDS011;8064;51.142;4.780;2023-04-06T02:00:40;21.03;;;12.47;;
15929;SDS011;8064;51.142;4.780;2023-04-06T02:03:06;19.63;;;12.53;;
15929;SDS011;8064;51.142;4.780;2023-04-06T02:05:32;18.50;;;12.57;;
15929;SDS011;8064;51.142;4.780;2023-04-06T02:08:03;20.90;;;12.03;;
15929;SDS011;8064;51.142;4.780;2023-04-06T02:10:30;19.17;;;13.00;;
15929;SDS011;8064;51.142;4.780;2023-04-06T02:12:56;19.40;;;12.57;;
15929;SDS011;8064;51.142;4.780;2023-04-06T02:15:22;22.00;;;13.17;;
15929;SDS011;8064;51.142;4.780;2023-04-06T02:17:48;19.67;;;12.10;;
15929;SDS011;8064;51.142;4.780;2023-04-06T02:20:14;19.20;;;13.07;;
15929;SDS011;8064;51.142;4.780;2023-04-06T02:22:40;18.90;;;12.40;;
15929;SDS011;8064;51.142;4.780;2023-04-06T02:25:05;20.03;;;11.87;;
15929;SDS011;8064;51.142;4.780;2023-04-06T02:27:31;21.83;;;12.63;;
15929;SDS011;8064;51.142;4.780;2023-04-06T02:29:57;17.43;;;12.53;;
15929;SDS011;8064;51.142;4.780;2023-04-06T02:32:23;21.50;;;12.80;;
15929;SDS011;8064;51.142;4.780;2023-04-06T02:34:49;21.43;;;12.47;;
15929;SDS011;8064;51.142;4.780;2023-04-06T02:37:15;21.93;;;12.10;;
15929;SDS011;8064;51.142;4.780;2023-04-06T02:39:41;19.60;;;12.27;;
15929;SDS011;8064;51.142;4.780;2023-04-06T02:42:06;16.73;;;11.57;;
15929;SDS011;8064;51.142;4.780;2023-04-06T02:44:33;20.73;;;12.67;;
15929;SDS011;8064;51.142;4.780;2023-04-06T02:46:59;18.53;;;12.70;;
15929;SDS011;8064;51.142;4.780;2023-04-06T02:49:25;18.17;;;12.17;;
15929;SDS011;8064;51.142;4.780;2023-04-06T02:51:51;22.03;;;12.13;;
15929;SDS011;8064;51.142;4.780;2023-04-06T02:54:17;20.17;;;11.70;;
15929;SDS011;8064;51.142;4.780;2023-04-06T02:56:43;16.37;;;11.00;;
15929;SDS011;8064;51.142;4.780;2023-04-06T02:59:09;22.53;;;12.03;;
15929;SDS011;8064;51.142;4.780;2023-04-06T03:01:35;18.13;;;11.90;;
15929;SDS011;8064;51.142;4.780;2023-04-06T03:04:01;21.37;;;11.57;;
15929;SDS011;8064;51.142;4.780;2023-04-06T03:06:28;21.47;;;12.40;;
15929;SDS011;8064;51.142;4.780;2023-04-06T03:08:53;17.80;;;11.63;;
15929;SDS011;8064;51.142;4.780;2023-04-06T03:11:19;19.73;;;11.47;;
15929;SDS011;8064;51.142;4.780;2023-04-06T03:13:45;19.40;;;11.90;;
15929;SDS011;8064;51.142;4.780;2023-04-06T03:16:11;20.07;;;11.93;;
15929;SDS011;8064;51.142;4.780;2023-04-06T03:18:37;16.83;;;11.83;;
15929;SDS011;8064;51.142;4.780;2023-04-06T03:21:03;17.47;;;11.80;;
15929;SDS011;8064;51.142;4.780;2023-04-06T03:23:28;18.90;;;12.20;;
15929;SDS011;8064;51.142;4.780;2023-04-06T03:25:54;17.53;;;11.67;;
15929;SDS011;8064;51.142;4.780;2023-04-06T03:28:20;15.23;;;11.77;;
15929;SDS011;8064;51.142;4.780;2023-04-06T03:30:46;17.77;;;11.80;;
15929;SDS011;8064;51.142;4.780;2023-04-06T03:33:12;20.77;;;12.37;;
15929;SDS011;8064;51.142;4.780;2023-04-06T03:35:37;18.70;;;11.80;;
15929;SDS011;8064;51.142;4.780;2023-04-06T03:38:04;15.70;;;11.67;;
15929;SDS011;8064;51.142;4.780;2023-04-06T03:40:30;16.47;;;11.37;;
15929;SDS011;8064;51.142;4.780;2023-04-06T03:42:56;18.33;;;11.67;;
15929;SDS011;8064;51.142;4.780;2023-04-06T03:45:22;18.13;;;12.07;;
15929;SDS011;8064;51.142;4.780;2023-04-06T03:47:48;16.30;;;11.77;;
15929;SDS011;8064;51.142;4.780;2023-04-06T03:50:14;17.50;;;11.67;;
15929;SDS011;8064;51.142;4.780;2023-04-06T03:52:40;17.17;;;11.53;;
15929;SDS011;8064;51.142;4.780;2023-04-06T03:55:06;18.23;;;11.63;;
15929;SDS011;8064;51.142;4.780;2023-04-06T03:57:32;19.30;;;11.77;;
15929;SDS011;8064;51.142;4.780;2023-04-06T03:59:58;16.43;;;11.20;;
15929;SDS011;8064;51.142;4.780;2023-04-06T04:02:24;21.87;;;11.47;;
15929;SDS011;8064;51.142;4.780;2023-04-06T04:04:50;16.27;;;10.90;;
15929;SDS011;8064;51.142;4.780;2023-04-06T04:07:15;19.20;;;11.37;;
15929;SDS011;8064;51.142;4.780;2023-04-06T04:09:41;15.77;;;11.37;;
15929;SDS011;8064;51.142;4.780;2023-04-06T04:12:07;16.33;;;10.53;;
15929;SDS011;8064;51.142;4.780;2023-04-06T04:14:33;19.63;;;11.37;;
15929;SDS011;8064;51.142;4.780;2023-04-06T04:16:59;15.97;;;10.70;;
15929;SDS011;8064;51.142;4.780;2023-04-06T04:19:25;20.83;;;12.67;;
15929;SDS011;8064;51.142;4.780;2023-04-06T04:21:50;17.20;;;11.60;;
15929;SDS011;8064;51.142;4.780;2023-04-06T04:24:16;15.10;;;11.33;;
15929;SDS011;8064;51.142;4.780;2023-04-06T04:26:42;18.83;;;12.03;;
15929;SDS011;8064;51.142;4.780;2023-04-06T04:29:08;16.13;;;10.90;;
15929;SDS011;8064;51.142;4.780;2023-04-06T04:31:34;15.63;;;10.93;;
15929;SDS011;8064;51.142;4.780;2023-04-06T04:34:00;22.70;;;11.40;;
15929;SDS011;8064;51.142;4.780;2023-04-06T04:36:26;17.97;;;11.17;;
15929;SDS011;8064;51.142;4.780;2023-04-06T04:38:52;16.63;;;12.30;;
15929;SDS011;8064;51.142;4.780;2023-04-06T04:41:18;19.73;;;11.87;;
15929;SDS011;8064;51.142;4.780;2023-04-06T04:43:44;17.07;;;11.07;;
15929;SDS011;8064;51.142;4.780;2023-04-06T04:46:10;16.43;;;11.50;;
15929;SDS011;8064;51.142;4.780;2023-04-06T04:48:36;21.10;;;11.73;;
15929;SDS011;8064;51.142;4.780;2023-04-06T04:51:03;19.13;;;11.10;;
15929;SDS011;8064;51.142;4.780;2023-04-06T04:53:29;15.20;;;11.33;;
15929;SDS011;8064;51.142;4.780;2023-04-06T04:55:55;14.53;;;10.90;;
15929;SDS011;8064;51.142;4.780;2023-04-06T04:58:21;15.73;;;11.33;;
15929;SDS011;8064;51.142;4.780;2023-04-06T05:00:47;16.90;;;11.77;;
15929;SDS011;8064;51.142;4.780;2023-04-06T05:03:14;16.10;;;11.60;;
15929;SDS011;8064;51.142;4.780;2023-04-06T05:05:46;17.20;;;11.50;;
15929;SDS011;8064;51.142;4.780;2023-04-06T05:08:12;18.93;;;11.77;;
15929;SDS011;8064;51.142;4.780;2023-04-06T05:10:38;17.10;;;12.47;;
15929;SDS011;8064;51.142;4.780;2023-04-06T05:13:04;18.03;;;12.47;;
15929;SDS011;8064;51.142;4.780;2023-04-06T05:15:30;17.83;;;12.10;;
15929;SDS011;8064;51.142;4.780;2023-04-06T05:17:56;17.13;;;11.70;;
15929;SDS011;8064;51.142;4.780;2023-04-06T05:20:22;16.20;;;12.20;;
15929;SDS011;8064;51.142;4.780;2023-04-06T05:22:48;16.77;;;12.17;;
15929;SDS011;8064;51.142;4.780;2023-04-06T05:25:14;15.33;;;11.93;;
15929;SDS011;8064;51.142;4.780;2023-04-06T05:27:40;16.90;;;11.63;;
15929;SDS011;8064;51.142;4.780;2023-04-06T05:30:06;23.57;;;12.83;;
15929;SDS011;8064;51.142;4.780;2023-04-06T05:32:33;17.90;;;11.63;;
15929;SDS011;8064;51.142;4.780;2023-04-06T05:34:59;14.27;;;11.10;;
15929;SDS011;8064;51.142;4.780;2023-04-06T05:37:25;15.60;;;11.77;;
15929;SDS011;8064;51.142;4.780;2023-04-06T05:39:51;15.53;;;11.80;;
15929;SDS011;8064;51.142;4.780;2023-04-06T05:42:17;20.47;;;12.40;;
15929;SDS011;8064;51.142;4.780;2023-04-06T05:44:42;18.13;;;12.73;;
15929;SDS011;8064;51.142;4.780;2023-04-06T05:47:08;26.17;;;17.73;;
15929;SDS011;8064;51.142;4.780;2023-04-06T05:49:34;16.60;;;11.93;;
15929;SDS011;8064;51.142;4.780;2023-04-06T05:52:00;17.03;;;12.03;;
15929;SDS011;8064;51.142;4.780;2023-04-06T05:54:26;19.63;;;12.73;;
15929;SDS011;8064;51.142;4.780;2023-04-06T05:56:52;22.70;;;13.60;;
15929;SDS011;8064;51.142;4.780;2023-04-06T05:59:18;21.70;;;13.00;;
15929;SDS011;8064;51.142;4.780;2023-04-06T06:01:43;22.67;;;14.83;;
15929;SDS011;8064;51.142;4.780;2023-04-06T06:04:09;18.23;;;13.40;;
15929;SDS011;8064;51.142;4.780;2023-04-06T06:06:35;17.17;;;12.80;;
15929;SDS011;8064;51.142;4.780;2023-04-06T06:09:02;21.17;;;12.10;;
15929;SDS011;8064;51.142;4.780;2023-04-06T06:11:28;18.30;;;12.23;;
15929;SDS011;8064;51.142;4.780;2023-04-06T06:13:55;18.90;;;12.77;;
15929;SDS011;8064;51.142;4.780;2023-04-06T06:16:21;18.00;;;12.07;;
15929;SDS011;8064;51.142;4.780;2023-04-06T06:18:47;15.70;;;11.93;;
15929;SDS011;8064;51.142;4.780;2023-04-06T06:21:13;18.13;;;13.33;;
15929;SDS011;8064;51.142;4.780;2023-04-06T06:23:42;18.83;;;12.63;;
15929;SDS011;8064;51.142;4.780;2023-04-06T06:26:08;17.47;;;11.80;;
15929;SDS011;8064;51.142;4.780;2023-04-06T06:28:33;17.53;;;11.87;;
15929;SDS011;8064;51.142;4.780;2023-04-06T06:30:59;15.63;;;11.30;;
15929;SDS011;8064;51.142;4.780;2023-04-06T06:33:26;17.93;;;11.77;;
15929;SDS011;8064;51.142;4.780;2023-04-06T06:35:52;17.70;;;11.57;;
15929;SDS011;8064;51.142;4.780;2023-04-06T06:38:17;17.27;;;12.23;;
15929;SDS011;8064;51.142;4.780;2023-04-06T06:40:44;16.53;;;11.77;;
15929;SDS011;8064;51.142;4.780;2023-04-06T06:43:11;17.43;;;12.50;;
15929;SDS011;8064;51.142;4.780;2023-04-06T06:45:37;16.03;;;11.77;;
15929;SDS011;8064;51.142;4.780;2023-04-06T06:48:03;14.77;;;11.17;;
15929;SDS011;8064;51.142;4.780;2023-04-06T06:50:29;13.83;;;10.83;;
15929;SDS011;8064;51.142;4.780;2023-04-06T06:52:54;16.20;;;11.73;;
15929;SDS011;8064;51.142;4.780;2023-04-06T06:55:20;14.17;;;11.27;;
15929;SDS011;8064;51.142;4.780;2023-04-06T06:57:46;15.43;;;11.43;;
15929;SDS011;8064;51.142;4.780;2023-04-06T07:00:12;14.37;;;10.87;;
15929;SDS011;8064;51.142;4.780;2023-04-06T07:02:39;15.00;;;10.73;;
15929;SDS011;8064;51.142;4.780;2023-04-06T07:05:05;14.43;;;11.10;;
15929;SDS011;8064;51.142;4.780;2023-04-06T07:07:31;14.40;;;10.97;;
15929;SDS011;8064;51.142;4.780;2023-04-06T07:09:58;19.57;;;14.17;;
15929;SDS011;8064;51.142;4.780;2023-04-06T07:12:25;37.53;;;19.50;;
15929;SDS011;8064;51.142;4.780;2023-04-06T07:14:51;39.57;;;20.97;;
15929;SDS011;8064;51.142;4.780;2023-04-06T07:17:16;75.83;;;30.70;;
15929;SDS011;8064;51.142;4.780;2023-04-06T07:19:42;79.53;;;33.60;;
15929;SDS011;8064;51.142;4.780;2023-04-06T07:22:08;39.67;;;27.37;;
15929;SDS011;8064;51.142;4.780;2023-04-06T07:24:34;24.13;;;17.53;;
15929;SDS011;8064;51.142;4.780;2023-04-06T07:27:00;19.93;;;17.73;;
15929;SDS011;8064;51.142;4.780;2023-04-06T07:29:26;21.70;;;14.90;;
15929;SDS011;8064;51.142;4.780;2023-04-06T07:31:53;17.17;;;12.33;;
15929;SDS011;8064;51.142;4.780;2023-04-06T07:34:19;19.07;;;12.67;;
15929;SDS011;8064;51.142;4.780;2023-04-06T07:36:46;18.43;;;12.40;;
15929;SDS011;8064;51.142;4.780;2023-04-06T07:39:12;15.03;;;12.00;;
15929;SDS011;8064;51.142;4.780;2023-04-06T07:41:38;19.50;;;13.00;;
15929;SDS011;8064;51.142;4.780;2023-04-06T07:44:04;20.57;;;12.73;;
15929;SDS011;8064;51.142;4.780;2023-04-06T07:46:30;19.47;;;14.47;;
15929;SDS011;8064;51.142;4.780;2023-04-06T07:48:56;22.90;;;13.70;;
15929;SDS011;8064;51.142;4.780;2023-04-06T07:51:22;16.20;;;12.03;;
15929;SDS011;8064;51.142;4.780;2023-04-06T07:53:49;17.27;;;14.30;;
15929;SDS011;8064;51.142;4.780;2023-04-06T07:56:16;18.23;;;13.93;;
15929;SDS011;8064;51.142;4.780;2023-04-06T07:58:41;16.33;;;13.43;;
15929;SDS011;8064;51.142;4.780;2023-04-06T08:01:07;16.40;;;13.27;;
15929;SDS011;8064;51.142;4.780;2023-04-06T08:03:34;16.57;;;13.73;;
15929;SDS011;8064;51.142;4.780;2023-04-06T08:06:00;17.97;;;13.60;;
15929;SDS011;8064;51.142;4.780;2023-04-06T08:08:27;17.73;;;13.57;;
15929;SDS011;8064;51.142;4.780;2023-04-06T08:10:53;16.87;;;13.57;;
15929;SDS011;8064;51.142;4.780;2023-04-06T08:13:19;16.97;;;13.23;;
15929;SDS011;8064;51.142;4.780;2023-04-06T08:15:45;16.80;;;12.83;;
15929;SDS011;8064;51.142;4.780;2023-04-06T08:18:11;20.93;;;13.63;;
15929;SDS011;8064;51.142;4.780;2023-04-06T08:20:37;20.67;;;13.77;;
15929;SDS011;8064;51.142;4.780;2023-04-06T08:23:04;18.03;;;14.27;;
15929;SDS011;8064;51.142;4.780;2023-04-06T08:25:30;20.97;;;13.50;;
15929;SDS011;8064;51.142;4.780;2023-04-06T08:27:55;18.50;;;13.47;;
15929;SDS011;8064;51.142;4.780;2023-04-06T08:30:21;18.60;;;13.13;;
15929;SDS011;8064;51.142;4.780;2023-04-06T08:32:47;16.33;;;12.77;;
15929;SDS011;8064;51.142;4.780;2023-04-06T08:35:13;16.13;;;12.97;;
15929;SDS011;8064;51.142;4.780;2023-04-06T08:37:39;15.77;;;13.27;;
15929;SDS011;8064;51.142;4.780;2023-04-06T08:40:06;19.20;;;13.80;;
15929;SDS011;8064;51.142;4.780;2023-04-06T08:42:33;17.53;;;13.77;;
15929;SDS011;8064;51.142;4.780;2023-04-06T08:45:07;17.33;;;13.57;;
15929;SDS011;8064;51.142;4.780;2023-04-06T08:47:34;15.10;;;12.37;;
15929;SDS011;8064;51.142;4.780;2023-04-06T08:50:03;15.23;;;12.23;;
15929;SDS011;8064;51.142;4.780;2023-04-06T08:52:31;19.60;;;12.70;;
15929;SDS011;8064;51.142;4.780;2023-04-06T08:54:59;13.33;;;11.77;;
15929;SDS011;8064;51.142;4.780;2023-04-06T08:57:25;14.63;;;10.93;;
15929;SDS011;8064;51.142;4.780;2023-04-06T08:59:52;16.00;;;11.40;;
15929;SDS011;8064;51.142;4.780;2023-04-06T09:02:19;18.13;;;12.37;;
15929;SDS011;8064;51.142;4.780;2023-04-06T09:04:45;15.57;;;10.77;;
15929;SDS011;8064;51.142;4.780;2023-04-06T09:07:14;21.93;;;12.37;;
15929;SDS011;8064;51.142;4.780;2023-04-06T09:09:41;13.73;;;10.20;;
15929;SDS011;8064;51.142;4.780;2023-04-06T09:12:30;17.53;;;11.07;;
15929;SDS011;8064;51.142;4.780;2023-04-06T09:14:57;11.43;;;10.13;;
15929;SDS011;8064;51.142;4.780;2023-04-06T09:17:24;14.53;;;10.40;;
15929;SDS011;8064;51.142;4.780;2023-04-06T09:19:51;11.13;;;9.87;;
15929;SDS011;8064;51.142;4.780;2023-04-06T09:22:17;11.93;;;9.63;;
15929;SDS011;8064;51.142;4.780;2023-04-06T09:27:30;13.87;;;10.03;;
15929;SDS011;8064;51.142;4.780;2023-04-06T09:30:09;11.87;;;9.80;;
15929;SDS011;8064;51.142;4.780;2023-04-06T09:35:24;12.40;;;9.70;;
15929;SDS011;8064;51.142;4.780;2023-04-06T09:37:52;12.70;;;9.30;;
15929;SDS011;8064;51.142;4.780;2023-04-06T09:40:18;11.70;;;9.30;;
15929;SDS011;8064;51.142;4.780;2023-04-06T09:42:46;10.77;;;9.53;;
15929;SDS011;8064;51.142;4.780;2023-04-06T09:45:13;10.30;;;9.20;;
15929;SDS011;8064;51.142;4.780;2023-04-06T09:47:39;12.03;;;9.37;;
15929;SDS011;8064;51.142;4.780;2023-04-06T09:50:08;13.03;;;10.23;;
15929;SDS011;8064;51.142;4.780;2023-04-06T09:52:37;10.97;;;9.10;;
15929;SDS011;8064;51.142;4.780;2023-04-06T09:55:08;11.30;;;9.10;;
15929;SDS011;8064;51.142;4.780;2023-04-06T10:00:15;11.10;;;8.90;;
15929;SDS011;8064;51.142;4.780;2023-04-06T10:07:48;10.77;;;8.67;;
15929;SDS011;8064;51.142;4.780;2023-04-06T10:10:16;11.47;;;8.97;;
15929;SDS011;8064;51.142;4.780;2023-04-06T10:12:42;11.33;;;8.43;;
15929;SDS011;8064;51.142;4.780;2023-04-06T10:15:09;10.37;;;8.87;;
15929;SDS011;8064;51.142;4.780;2023-04-06T10:17:36;9.67;;;8.53;;
15929;SDS011;8064;51.142;4.780;2023-04-06T10:25:51;10.23;;;8.93;;
15929;SDS011;8064;51.142;4.780;2023-04-06T10:28:18;11.03;;;9.73;;
15929;SDS011;8064;51.142;4.780;2023-04-06T10:30:45;10.40;;;9.20;;
15929;SDS011;8064;51.142;4.780;2023-04-06T10:33:12;11.53;;;9.30;;
15929;SDS011;8064;51.142;4.780;2023-04-06T10:35:57;11.50;;;10.30;;
15929;SDS011;8064;51.142;4.780;2023-04-06T10:38:34;12.73;;;10.20;;
15929;SDS011;8064;51.142;4.780;2023-04-06T10:41:04;11.53;;;9.73;;
15929;SDS011;8064;51.142;4.780;2023-04-06T10:43:32;12.87;;;10.33;;
15929;SDS011;8064;51.142;4.780;2023-04-06T10:46:01;12.50;;;9.77;;
15929;SDS011;8064;51.142;4.780;2023-04-06T10:53:52;12.30;;;10.53;;
15929;SDS011;8064;51.142;4.780;2023-04-06T10:56:21;12.37;;;10.00;;
15929;SDS011;8064;51.142;4.780;2023-04-06T10:58:49;12.70;;;10.70;;
15929;SDS011;8064;51.142;4.780;2023-04-06T11:01:18;13.00;;;10.90;;
15929;SDS011;8064;51.142;4.780;2023-04-06T11:03:45;13.27;;;11.10;;
15929;SDS011;8064;51.142;4.780;2023-04-06T11:08:57;12.67;;;10.33;;
15929;SDS011;8064;51.142;4.780;2023-04-06T11:11:24;10.73;;;9.20;;
15929;SDS011;8064;51.142;4.780;2023-04-06T11:13:53;9.70;;;8.70;;
15929;SDS011;8064;51.142;4.780;2023-04-06T11:16:21;10.37;;;8.33;;
15929;SDS011;8064;51.142;4.780;2023-04-06T11:21:42;9.90;;;8.90;;
15929;SDS011;8064;51.142;4.780;2023-04-06T11:24:22;11.27;;;8.73;;
15929;SDS011;8064;51.142;4.780;2023-04-06T11:29:17;9.53;;;8.53;;
15929;SDS011;8064;51.142;4.780;2023-04-06T11:31:45;12.70;;;8.87;;
15929;SDS011;8064;51.142;4.780;2023-04-06T11:34:15;10.87;;;9.47;;
15929;SDS011;8064;51.142;4.780;2023-04-06T11:36:43;10.73;;;9.63;;
15929;SDS011;8064;51.142;4.780;2023-04-06T11:39:09;10.03;;;8.93;;
15929;SDS011;8064;51.142;4.780;2023-04-06T11:41:36;10.70;;;9.40;;
15929;SDS011;8064;51.142;4.780;2023-04-06T11:44:02;9.83;;;8.53;;
15929;SDS011;8064;51.142;4.780;2023-04-06T11:46:29;10.73;;;9.50;;
15929;SDS011;8064;51.142;4.780;2023-04-06T11:51:41;11.00;;;9.90;;
15929;SDS011;8064;51.142;4.780;2023-04-06T11:54:08;10.53;;;9.43;;
15929;SDS011;8064;51.142;4.780;2023-04-06T11:56:35;10.60;;;8.80;;
15929;SDS011;8064;51.142;4.780;2023-04-06T11:59:01;10.90;;;8.97;;
15929;SDS011;8064;51.142;4.780;2023-04-06T12:01:28;10.63;;;9.57;;
15929;SDS011;8064;51.142;4.780;2023-04-06T12:03:54;12.27;;;9.57;;
15929;SDS011;8064;51.142;4.780;2023-04-06T12:06:20;11.27;;;10.07;;
15929;SDS011;8064;51.142;4.780;2023-04-06T12:08:46;10.50;;;9.13;;
15929;SDS011;8064;51.142;4.780;2023-04-06T12:11:11;10.90;;;9.80;;
15929;SDS011;8064;51.142;4.780;2023-04-06T12:13:37;11.10;;;9.77;;
15929;SDS011;8064;51.142;4.780;2023-04-06T12:16:03;10.60;;;9.30;;
15929;SDS011;8064;51.142;4.780;2023-04-06T12:18:30;10.57;;;9.47;;
15929;SDS011;8064;51.142;4.780;2023-04-06T12:20:56;11.90;;;9.83;;
15929;SDS011;8064;51.142;4.780;2023-04-06T12:23:22;10.30;;;9.23;;
15929;SDS011;8064;51.142;4.780;2023-04-06T12:25:47;11.53;;;9.47;;
15929;SDS011;8064;51.142;4.780;2023-04-06T12:28:13;10.30;;;9.10;;
15929;SDS011;8064;51.142;4.780;2023-04-06T12:30:39;9.40;;;8.50;;
15929;SDS011;8064;51.142;4.780;2023-04-06T12:33:06;10.60;;;9.20;;
15929;SDS011;8064;51.142;4.780;2023-04-06T12:35:33;10.30;;;9.13;;
15929;SDS011;8064;51.142;4.780;2023-04-06T12:37:59;10.03;;;8.77;;
15929;SDS011;8064;51.142;4.780;2023-04-06T12:40:25;10.20;;;8.57;;
15929;SDS011;8064;51.142;4.780;2023-04-06T12:42:51;10.63;;;9.57;;
15929;SDS011;8064;51.142;4.780;2023-04-06T12:45:17;8.73;;;7.83;;
15929;SDS011;8064;51.142;4.780;2023-04-06T12:47:42;10.50;;;9.03;;
15929;SDS011;8064;51.142;4.780;2023-04-06T12:50:08;12.73;;;9.53;;
15929;SDS011;8064;51.142;4.780;2023-04-06T12:52:34;9.30;;;8.33;;
15929;SDS011;8064;51.142;4.780;2023-04-06T12:55:02;9.90;;;8.20;;
15929;SDS011;8064;51.142;4.780;2023-04-06T12:57:28;10.50;;;8.03;;
15929;SDS011;8064;51.142;4.780;2023-04-06T12:59:54;10.00;;;9.00;;
15929;SDS011;8064;51.142;4.780;2023-04-06T13:02:21;9.93;;;8.90;;
15929;SDS011;8064;51.142;4.780;2023-04-06T13:04:48;9.90;;;8.90;;
15929;SDS011;8064;51.142;4.780;2023-04-06T13:07:14;9.43;;;8.10;;
15929;SDS011;8064;51.142;4.780;2023-04-06T13:09:40;9.93;;;8.43;;
15929;SDS011;8064;51.142;4.780;2023-04-06T13:12:06;10.00;;;9.00;;
15929;SDS011;8064;51.142;4.780;2023-04-06T13:14:31;11.03;;;9.23;;
15929;SDS011;8064;51.142;4.780;2023-04-06T13:16:57;10.20;;;9.10;;
15929;SDS011;8064;51.142;4.780;2023-04-06T13:19:23;10.57;;;9.43;;
15929;SDS011;8064;51.142;4.780;2023-04-06T13:21:49;9.80;;;8.80;;
15929;SDS011;8064;51.142;4.780;2023-04-06T13:24:15;11.50;;;10.37;;
15929;SDS011;8064;51.142;4.780;2023-04-06T13:26:41;10.13;;;9.13;;
15929;SDS011;8064;51.142;4.780;2023-04-06T13:29:07;10.00;;;9.00;;
15929;SDS011;8064;51.142;4.780;2023-04-06T13:31:33;11.00;;;9.90;;
15929;SDS011;8064;51.142;4.780;2023-04-06T13:33:58;11.90;;;10.00;;
15929;SDS011;8064;51.142;4.780;2023-04-06T13:36:25;10.30;;;9.20;;
15929;SDS011;8064;51.142;4.780;2023-04-06T13:38:52;10.43;;;9.37;;
15929;SDS011;8064;51.142;4.780;2023-04-06T13:41:19;10.40;;;9.40;;
15929;SDS011;8064;51.142;4.780;2023-04-06T13:43:46;10.43;;;9.33;;
15929;SDS011;8064;51.142;4.780;2023-04-06T13:46:12;10.97;;;9.87;;
15929;SDS011;8064;51.142;4.780;2023-04-06T13:48:38;11.33;;;10.23;;
15929;SDS011;8064;51.142;4.780;2023-04-06T13:51:17;11.43;;;10.33;;
15929;SDS011;8064;51.142;4.780;2023-04-06T13:53:42;11.33;;;10.27;;
15929;SDS011;8064;51.142;4.780;2023-04-06T13:56:08;11.93;;;10.73;;
15929;SDS011;8064;51.142;4.780;2023-04-06T13:58:34;10.80;;;9.80;;
15929;SDS011;8064;51.142;4.780;2023-04-06T14:01:01;10.87;;;9.63;;
15929;SDS011;8064;51.142;4.780;2023-04-06T14:03:29;10.27;;;9.27;;
15929;SDS011;8064;51.142;4.780;2023-04-06T14:05:55;11.10;;;10.00;;
15929;SDS011;8064;51.142;4.780;2023-04-06T14:08:21;11.53;;;10.43;;
15929;SDS011;8064;51.142;4.780;2023-04-06T14:10:47;11.53;;;10.23;;
15929;SDS011;8064;51.142;4.780;2023-04-06T14:13:12;11.27;;;10.17;;
15929;SDS011;8064;51.142;4.780;2023-04-06T14:15:38;11.30;;;10.07;;
15929;SDS011;8064;51.142;4.780;2023-04-06T14:18:04;11.30;;;9.97;;
15929;SDS011;8064;51.142;4.780;2023-04-06T14:20:31;11.60;;;10.40;;
15929;SDS011;8064;51.142;4.780;2023-04-06T14:22:59;11.40;;;10.30;;
15929;SDS011;8064;51.142;4.780;2023-04-06T14:25:25;10.73;;;9.33;;
15929;SDS011;8064;51.142;4.780;2023-04-06T14:27:51;11.53;;;10.20;;
15929;SDS011;8064;51.142;4.780;2023-04-06T14:30:16;11.00;;;9.10;;
15929;SDS011;8064;51.142;4.780;2023-04-06T14:32:43;11.57;;;10.47;;
15929;SDS011;8064;51.142;4.780;2023-04-06T14:35:09;11.77;;;10.60;;
15929;SDS011;8064;51.142;4.780;2023-04-06T14:37:35;12.00;;;9.80;;
15929;SDS011;8064;51.142;4.780;2023-04-06T14:40:01;11.43;;;10.23;;
15929;SDS011;8064;51.142;4.780;2023-04-06T14:42:28;13.17;;;11.57;;
15929;SDS011;8064;51.142;4.780;2023-04-06T14:44:54;13.00;;;11.63;;
15929;SDS011;8064;51.142;4.780;2023-04-06T14:47:19;12.57;;;11.33;;
15929;SDS011;8064;51.142;4.780;2023-04-06T14:49:48;14.23;;;11.77;;
15929;SDS011;8064;51.142;4.780;2023-04-06T14:52:16;12.60;;;11.33;;
15929;SDS011;8064;51.142;4.780;2023-04-06T14:54:42;12.20;;;11.00;;
15929;SDS011;8064;51.142;4.780;2023-04-06T14:57:07;12.77;;;11.47;;
15929;SDS011;8064;51.142;4.780;2023-04-06T14:59:33;13.23;;;11.90;;
15929;SDS011;8064;51.142;4.780;2023-04-06T15:02:00;14.63;;;12.60;;
15929;SDS011;8064;51.142;4.780;2023-04-06T15:04:28;13.40;;;12.10;;
15929;SDS011;8064;51.142;4.780;2023-04-06T15:06:54;14.17;;;12.87;;
15929;SDS011;8064;51.142;4.780;2023-04-06T15:09:20;15.00;;;13.17;;